Capt. John Reynolds — WDD6151 — position and weather

sailwx.info

Track history (hours):
 
Tides and Currents Weather Stations Pressure Air Temp Water Temp Dewpoint Dewpoint Depression Visibility Wind Speed Wind Dir Waves Ship Positions

Capt. John Reynolds

Owner: AEP River Operations LLC, Chesterfield, MO. More information available from US FCC via Universal Licensing System and Coast Guard Vessel Documentation Center.

Last reported at 2015-Nov-15 22:25 UTC. Time now 2016-Dec-06 16:08 UTC.
Position N 38°57' W 084°51'.
Warning: this ship's position is years out of date!

Length 47 m; draft 3.3 m.

Type: Towing. MMSI: 367168950.

Date/timePositionNaut miles runAvg speedWind from/ knotsBaromVisibWave heightAir tempDewpointWater temp
2015-Nov-15 22:25N 38°57' W 084°51'10 3.2
2015-Nov-15 19:06N 39°07' W 084°48'2 4.2
2015-Nov-15 18:33N 39°08' W 084°46'4 3.6
2015-Nov-15 17:28N 39°06' W 084°42'0 0.4
2015-Nov-15 16:31N 39°06' W 084°41'0 0.0
2015-Nov-15 15:31N 39°06' W 084°41'0 0.0
2015-Nov-15 14:31N 39°06' W 084°41'0 0.0
2015-Nov-15 13:22N 39°06' W 084°41'0 0.0
2015-Nov-15 12:30N 39°06' W 084°41'0 0.1
2015-Nov-15 11:33N 39°06' W 084°41'2 2.3
2015-Nov-15 10:32N 39°05' W 084°38'4 4.1
2015-Nov-15 09:31N 39°06' W 084°33'0 0.2
2015-Nov-15 08:31N 39°06' W 084°33'2 1.9
2015-Nov-15 07:33N 39°05' W 084°35'3 3.3
2015-Nov-15 06:33N 39°05' W 084°39'3 3.4
2015-Nov-15 05:33N 39°07' W 084°43'3 2.8
2015-Nov-15 04:31N 39°08' W 084°46'  
Track history (hours):
 
Tides and Currents Weather Stations Pressure Air Temp Water Temp Dewpoint Dewpoint Depression Visibility Wind Speed Wind Dir Waves Ship Positions

Capt. John Reynolds

Owner: AEP River Operations LLC, Chesterfield, MO. More information available from US FCC via Universal Licensing System and Coast Guard Vessel Documentation Center.

Last reported at 2015-Nov-15 22:25 UTC. Time now 2016-Dec-06 16:08 UTC.
Position N 38°57' W 084°51'.
Warning: this ship's position is years out of date!

Length 47 m; draft 3.3 m.

Type: Towing. MMSI: 367168950.

Date/timePositionNaut miles runAvg speedWind from/ knotsBaromVisibWave heightAir tempDewpointWater temp
2015-Nov-15 22:25N 38°57' W 084°51'10 3.2
2015-Nov-15 19:06N 39°07' W 084°48'2 4.2
2015-Nov-15 18:33N 39°08' W 084°46'4 3.6
2015-Nov-15 17:28N 39°06' W 084°42'0 0.4
2015-Nov-15 16:31N 39°06' W 084°41'0 0.0
2015-Nov-15 15:31N 39°06' W 084°41'0 0.0
2015-Nov-15 14:31N 39°06' W 084°41'0 0.0
2015-Nov-15 13:22N 39°06' W 084°41'0 0.0
2015-Nov-15 12:30N 39°06' W 084°41'0 0.1
2015-Nov-15 11:33N 39°06' W 084°41'2 2.3
2015-Nov-15 10:32N 39°05' W 084°38'4 4.1
2015-Nov-15 09:31N 39°06' W 084°33'0 0.2
2015-Nov-15 08:31N 39°06' W 084°33'2 1.9
2015-Nov-15 07:33N 39°05' W 084°35'3 3.3
2015-Nov-15 06:33N 39°05' W 084°39'3 3.4
2015-Nov-15 05:33N 39°07' W 084°43'3 2.8
2015-Nov-15 04:31N 39°08' W 084°46'  

Dump ship's entire track history